createdAt,value
2022-10-18T00:00:44.559Z,12.87
2022-10-18T00:03:11.056Z,12.84
2022-10-18T00:05:37.599Z,12.81
2022-10-18T00:08:04.154Z,12.77
2022-10-18T00:10:30.793Z,12.77
2022-10-18T00:12:57.284Z,12.72
2022-10-18T00:15:23.752Z,12.70
2022-10-18T00:17:50.302Z,12.63
2022-10-18T00:20:16.861Z,12.59
2022-10-18T00:22:43.468Z,12.58
2022-10-18T00:25:10.305Z,12.59
2022-10-18T00:27:37.334Z,12.57
2022-10-18T00:30:05.173Z,12.52
2022-10-18T00:32:31.934Z,12.50
2022-10-18T00:34:59.215Z,12.48
2022-10-18T00:37:25.886Z,12.46
2022-10-18T00:42:27.450Z,12.49
2022-10-18T00:45:04.751Z,12.43
2022-10-18T00:47:32.090Z,12.36
2022-10-18T00:50:01.601Z,12.30
2022-10-18T00:52:34.394Z,12.25
2022-10-18T00:55:01.301Z,12.18
2022-10-18T00:57:27.964Z,12.14
2022-10-18T00:59:54.609Z,12.12
2022-10-18T01:02:21.718Z,12.09
2022-10-18T01:04:48.866Z,12.04
2022-10-18T01:07:34.113Z,11.98
2022-10-18T01:10:03.932Z,11.94
2022-10-18T01:12:47.818Z,11.95
2022-10-18T01:15:26.397Z,11.92
2022-10-18T01:18:04.816Z,11.88
2022-10-18T01:21:08.776Z,11.89
2022-10-18T01:23:38.140Z,11.86
2022-10-18T01:26:38.732Z,11.85
2022-10-18T01:29:38.344Z,11.76
2022-10-18T01:32:08.524Z,11.72
2022-10-18T01:34:36.556Z,11.67
2022-10-18T01:37:05.258Z,11.64
2022-10-18T01:39:35.169Z,11.58
2022-10-18T01:42:03.396Z,11.54
2022-10-18T01:44:31.908Z,11.50
2022-10-18T01:46:59.060Z,11.43
2022-10-18T01:49:26.827Z,11.38
2022-10-18T01:51:53.663Z,11.38
2022-10-18T01:54:29.504Z,11.36
2022-10-18T01:57:03.445Z,11.42
2022-10-18T02:00:10.750Z,11.42
2022-10-18T02:02:40.502Z,11.38
2022-10-18T02:05:13.096Z,11.33
2022-10-18T02:07:48.975Z,11.30
2022-10-18T02:10:30.065Z,11.24
2022-10-18T02:12:57.306Z,11.18
2022-10-18T02:15:28.709Z,11.16
2022-10-18T02:17:56.022Z,11.12
2022-10-18T02:20:24.998Z,11.11
2022-10-18T02:22:54.454Z,11.07
2022-10-18T02:25:25.417Z,11.07
2022-10-18T02:27:52.043Z,11.01
2022-10-18T02:30:19.486Z,10.96
2022-10-18T02:32:54.322Z,10.91
2022-10-18T02:35:26.112Z,10.89
2022-10-18T02:37:53.219Z,10.86
2022-10-18T02:40:20.030Z,10.83
2022-10-18T02:42:52.267Z,10.83
2022-10-18T02:45:18.838Z,10.79
2022-10-18T02:47:45.388Z,10.76
2022-10-18T02:50:12.072Z,10.77
2022-10-18T02:52:38.647Z,10.75
2022-10-18T02:55:05.965Z,10.76
2022-10-18T02:57:32.857Z,10.71
2022-10-18T02:59:59.752Z,10.69
2022-10-18T03:02:26.296Z,10.68
2022-10-18T03:04:52.866Z,10.68
2022-10-18T03:07:19.330Z,10.67
2022-10-18T03:09:45.795Z,10.62
2022-10-18T03:12:12.237Z,10.59
2022-10-18T03:14:38.792Z,10.55
2022-10-18T03:17:05.406Z,10.49
2022-10-18T03:19:31.931Z,10.45
2022-10-18T03:21:58.406Z,10.42
2022-10-18T03:24:24.888Z,10.43
2022-10-18T03:26:51.454Z,10.39
2022-10-18T03:29:17.977Z,10.35
2022-10-18T03:31:44.504Z,10.34
2022-10-18T03:34:11.000Z,10.36
2022-10-18T03:36:38.776Z,10.38
2022-10-18T03:39:05.278Z,10.38
2022-10-18T03:41:31.732Z,10.39
2022-10-18T03:43:58.203Z,10.39
2022-10-18T03:46:24.679Z,10.42
2022-10-18T03:48:51.160Z,10.44
2022-10-18T03:51:17.658Z,10.47
2022-10-18T03:53:44.143Z,10.50
2022-10-18T03:56:10.729Z,10.51
2022-10-18T03:58:37.273Z,10.49
2022-10-18T04:01:03.813Z,10.47
2022-10-18T04:03:30.335Z,10.45
2022-10-18T04:05:57.152Z,10.46
2022-10-18T04:08:23.659Z,10.48
2022-10-18T04:10:50.211Z,10.46
2022-10-18T04:13:16.684Z,10.44
2022-10-18T04:15:43.435Z,10.43
2022-10-18T04:18:10.072Z,10.40
2022-10-18T04:20:36.602Z,10.36
2022-10-18T04:23:03.082Z,10.35
2022-10-18T04:25:29.705Z,10.33
2022-10-18T04:27:56.314Z,10.31
2022-10-18T04:30:22.819Z,10.29
2022-10-18T04:32:49.318Z,10.28
2022-10-18T04:35:15.832Z,10.25
2022-10-18T04:37:42.450Z,10.23
2022-10-18T04:40:09.524Z,10.19
2022-10-18T04:42:35.980Z,10.14
2022-10-18T04:45:02.700Z,10.09
2022-10-18T04:47:29.368Z,10.06
2022-10-18T04:49:56.010Z,10.03
2022-10-18T04:52:22.468Z,9.99
2022-10-18T04:54:48.926Z,9.95
2022-10-18T04:57:15.466Z,9.93
2022-10-18T04:59:41.956Z,9.88
2022-10-18T05:02:08.601Z,9.84
2022-10-18T05:04:35.211Z,9.82
2022-10-18T05:07:02.799Z,9.83
2022-10-18T05:09:29.298Z,9.83
2022-10-18T05:11:55.757Z,9.79
2022-10-18T05:14:22.280Z,9.78
2022-10-18T05:16:48.823Z,9.75
2022-10-18T05:19:15.367Z,9.74
2022-10-18T05:21:41.992Z,9.71
2022-10-18T05:24:11.558Z,9.68
2022-10-18T05:26:38.070Z,9.64
2022-10-18T05:29:04.738Z,9.60
2022-10-18T05:31:31.359Z,9.57
2022-10-18T05:33:57.873Z,9.55
2022-10-18T05:36:26.085Z,9.49
2022-10-18T05:38:53.607Z,9.46
2022-10-18T05:41:20.214Z,9.44
2022-10-18T05:43:46.785Z,9.46
2022-10-18T05:46:15.485Z,9.43
2022-10-18T05:48:44.307Z,9.42
2022-10-18T05:51:11.561Z,9.45
2022-10-18T05:53:38.433Z,9.43
2022-10-18T05:56:06.212Z,9.41
2022-10-18T05:58:33.556Z,9.41
2022-10-18T06:01:01.355Z,9.42
2022-10-18T06:03:28.505Z,9.42
2022-10-18T06:06:00.282Z,9.41
2022-10-18T06:08:26.865Z,9.34
2022-10-18T06:10:53.495Z,9.36
2022-10-18T06:13:19.951Z,9.37
2022-10-18T06:15:46.413Z,9.36
2022-10-18T06:18:12.997Z,9.32
2022-10-18T06:20:39.498Z,9.31
2022-10-18T06:23:06.581Z,9.31
2022-10-18T06:25:33.039Z,9.32
2022-10-18T06:27:59.518Z,9.33
2022-10-18T06:30:26.132Z,9.37
2022-10-18T06:32:52.762Z,9.39
2022-10-18T06:35:19.193Z,9.40
2022-10-18T06:37:45.679Z,9.42
2022-10-18T06:40:12.393Z,9.43
2022-10-18T06:42:39.174Z,9.46
2022-10-18T06:45:06.490Z,9.53
2022-10-18T06:47:33.007Z,9.60
2022-10-18T06:49:59.889Z,9.67
2022-10-18T06:52:26.545Z,9.77
2022-10-18T06:54:53.811Z,9.87
2022-10-18T06:57:21.292Z,9.94
2022-10-18T06:59:47.785Z,10.06
2022-10-18T07:02:16.595Z,10.23
2022-10-18T07:04:43.706Z,10.36
2022-10-18T07:07:10.163Z,10.48
2022-10-18T07:09:36.682Z,10.58
2022-10-18T07:12:03.367Z,10.72
2022-10-18T07:14:29.835Z,10.84
2022-10-18T07:16:59.500Z,11.00
2022-10-18T07:19:26.281Z,11.08
2022-10-18T07:21:52.769Z,11.18
2022-10-18T07:24:19.264Z,11.36
2022-10-18T07:26:45.762Z,11.53
2022-10-18T07:29:13.176Z,11.73
2022-10-18T07:31:40.859Z,12.01
2022-10-18T07:34:09.139Z,12.74
2022-10-18T07:36:35.675Z,13.56
2022-10-18T07:39:02.309Z,14.20
2022-10-18T07:41:29.234Z,14.72
2022-10-18T07:43:55.858Z,15.03
2022-10-18T07:46:22.598Z,15.48
2022-10-18T07:48:50.044Z,16.01
2022-10-18T07:51:17.864Z,16.40
2022-10-18T07:53:44.489Z,16.67
2022-10-18T07:56:16.617Z,17.34
2022-10-18T07:58:45.203Z,17.68
2022-10-18T08:01:12.511Z,17.65
2022-10-18T08:03:39.824Z,17.89
2022-10-18T08:06:09.158Z,18.36
2022-10-18T08:08:37.759Z,18.86
2022-10-18T08:11:10.544Z,19.05
2022-10-18T08:13:37.232Z,19.09
2022-10-18T08:16:06.149Z,19.29
2022-10-18T08:18:33.086Z,19.47
2022-10-18T08:21:00.985Z,19.81
2022-10-18T08:23:27.544Z,19.66
2022-10-18T08:25:54.114Z,19.82
2022-10-18T08:28:20.631Z,19.93
2022-10-18T08:30:47.107Z,20.15
2022-10-18T08:33:13.763Z,20.40
2022-10-18T08:35:40.304Z,20.97
2022-10-18T08:38:16.388Z,21.20
2022-10-18T08:40:44.781Z,21.31
2022-10-18T08:49:12.249Z,21.25
2022-10-18T08:51:45.686Z,21.54
2022-10-18T08:54:27.563Z,21.56
2022-10-18T08:57:00.391Z,21.54
2022-10-18T08:59:31.091Z,21.91
2022-10-18T09:02:22.402Z,21.77
2022-10-18T09:05:10.291Z,21.85
2022-10-18T09:14:24.209Z,21.78
2022-10-18T09:16:53.561Z,21.70
2022-10-18T09:19:30.512Z,22.01
2022-10-18T09:22:09.718Z,21.88
2022-10-18T09:24:41.239Z,22.12
2022-10-18T09:30:40.183Z,22.56
2022-10-18T09:33:31.210Z,23.44
2022-10-18T09:36:00.383Z,22.91
2022-10-18T09:38:32.951Z,22.75
2022-10-18T09:41:07.478Z,22.38
2022-10-18T09:43:50.834Z,22.55
2022-10-18T09:46:19.290Z,23.03
2022-10-18T09:48:50.446Z,22.83
2022-10-18T09:55:18.391Z,23.32
2022-10-18T09:57:51.014Z,23.55
2022-10-18T10:00:23.010Z,22.99
2022-10-18T10:02:49.562Z,22.95
2022-10-18T10:05:16.290Z,23.09
2022-10-18T10:07:45.896Z,23.13
2022-10-18T10:10:24.033Z,23.91
2022-10-18T10:13:15.789Z,23.42
2022-10-18T10:16:02.740Z,23.66
2022-10-18T10:18:37.124Z,24.49
2022-10-18T10:21:06.135Z,24.14
2022-10-18T10:23:37.024Z,23.44
2022-10-18T10:26:06.211Z,23.42
2022-10-18T10:28:37.482Z,23.90
2022-10-18T10:31:18.078Z,24.35
2022-10-18T10:33:47.492Z,24.51
2022-10-18T10:36:20.251Z,23.81
2022-10-18T10:38:46.979Z,23.41
2022-10-18T10:41:21.605Z,23.02
2022-10-18T10:43:48.380Z,23.06
2022-10-18T10:46:19.413Z,23.22
2022-10-18T10:49:08.443Z,23.88
2022-10-18T10:51:43.673Z,23.00
2022-10-18T10:54:16.127Z,22.61
2022-10-18T10:56:59.166Z,22.33
2022-10-18T10:59:27.990Z,22.87
2022-10-18T11:02:20.626Z,22.48
2022-10-18T11:04:52.143Z,22.77
2022-10-18T11:07:29.084Z,22.44
2022-10-18T11:10:04.145Z,21.96
2022-10-18T11:12:34.741Z,22.32
2022-10-18T11:15:39.146Z,22.11
2022-10-18T11:18:27.687Z,22.31
2022-10-18T11:20:58.731Z,22.47
2022-10-18T11:23:29.403Z,22.36
2022-10-18T11:26:12.561Z,22.62
2022-10-18T11:28:42.041Z,22.60
2022-10-18T11:31:33.437Z,22.83
2022-10-18T11:34:13.971Z,22.66
2022-10-18T11:37:22.931Z,22.94
2022-10-18T11:40:15.491Z,22.69
2022-10-18T11:42:50.219Z,22.96
2022-10-18T11:45:31.952Z,23.16
2022-10-18T11:48:13.514Z,22.61
2022-10-18T11:53:52.120Z,22.23
2022-10-18T11:56:39.746Z,22.33
2022-10-18T11:59:27.468Z,22.35
2022-10-18T12:02:31.682Z,22.80
2022-10-18T12:07:55.636Z,22.46
2022-10-18T12:10:31.733Z,22.54
2022-10-18T12:13:16.979Z,22.65
2022-10-18T12:15:44.017Z,23.14
2022-10-18T12:18:15.405Z,22.89
2022-10-18T12:20:43.467Z,23.11
2022-10-18T12:23:17.264Z,22.88
2022-10-18T12:25:47.894Z,23.18
2022-10-18T12:28:51.752Z,22.56
2022-10-18T12:31:33.971Z,22.78
2022-10-18T12:34:04.790Z,23.07
2022-10-18T12:36:46.460Z,22.65
2022-10-18T12:39:43.698Z,22.85
2022-10-18T12:42:28.629Z,23.19
2022-10-18T12:45:02.574Z,22.50
2022-10-18T12:47:30.108Z,22.38
2022-10-18T12:50:22.928Z,22.71
2022-10-18T12:53:02.644Z,22.76
2022-10-18T12:55:32.641Z,23.04
2022-10-18T12:57:59.228Z,23.23
2022-10-18T13:00:31.979Z,23.28
2022-10-18T13:03:13.489Z,23.11
2022-10-18T13:05:54.842Z,23.46
2022-10-18T13:08:28.097Z,23.29
2022-10-18T13:11:12.542Z,23.40
2022-10-18T13:13:48.440Z,22.61
2022-10-18T13:16:20.834Z,22.83
2022-10-18T13:18:50.035Z,22.72
2022-10-18T13:21:44.476Z,22.55
2022-10-18T13:24:24.296Z,22.93
2022-10-18T13:30:01.300Z,23.04
2022-10-18T13:32:46.314Z,23.21
2022-10-18T13:35:43.771Z,23.41
2022-10-18T13:41:25.731Z,23.42
2022-10-18T13:43:52.674Z,23.71
2022-10-18T13:46:22.037Z,23.31
2022-10-18T13:52:26.987Z,22.70
2022-10-18T13:55:18.219Z,23.42
2022-10-18T13:57:47.664Z,23.55
2022-10-18T14:00:23.332Z,23.68
2022-10-18T14:03:02.427Z,23.48
2022-10-18T14:05:50.781Z,24.00
2022-10-18T14:11:05.541Z,24.03
2022-10-18T14:13:48.489Z,24.42
2022-10-18T14:16:27.937Z,24.03
2022-10-18T14:19:01.189Z,24.20
2022-10-18T14:21:32.427Z,24.24
2022-10-18T14:23:58.924Z,24.13
2022-10-18T14:26:28.700Z,24.03
2022-10-18T14:29:06.349Z,24.75
2022-10-18T14:31:33.266Z,24.72
2022-10-18T14:33:59.988Z,24.62
2022-10-18T14:36:29.844Z,24.66
2022-10-18T14:39:06.498Z,24.79
2022-10-18T14:41:38.548Z,24.96
2022-10-18T14:44:14.240Z,24.66
2022-10-18T14:46:46.728Z,24.75
2022-10-18T14:49:14.200Z,25.06
2022-10-18T14:51:43.077Z,25.05
2022-10-18T14:54:23.075Z,24.42
2022-10-18T14:56:51.609Z,24.61
2022-10-18T15:02:25.958Z,24.64
2022-10-18T15:05:07.406Z,24.52
2022-10-18T15:07:34.264Z,24.14
2022-10-18T15:10:03.963Z,23.75
2022-10-18T15:12:36.945Z,23.42
2022-10-18T15:15:20.941Z,23.65
2022-10-18T15:17:48.253Z,23.54
2022-10-18T15:20:22.954Z,23.67
2022-10-18T15:22:49.549Z,24.20
2022-10-18T15:25:32.111Z,24.24
2022-10-18T15:27:59.540Z,23.78
2022-10-18T15:30:36.874Z,22.98
2022-10-18T15:33:09.584Z,22.24
2022-10-18T15:35:37.614Z,20.92
2022-10-18T15:38:20.577Z,19.92
2022-10-18T15:40:48.078Z,19.51
2022-10-18T15:43:23.672Z,18.67
2022-10-18T15:45:52.873Z,18.38
2022-10-18T15:48:21.264Z,18.10
2022-10-18T15:50:53.770Z,17.91
2022-10-18T15:53:20.214Z,17.50
2022-10-18T15:56:00.053Z,17.39
2022-10-18T15:58:46.183Z,17.06
2022-10-18T16:01:34.995Z,17.03
2022-10-18T16:04:05.391Z,16.94
2022-10-18T16:06:35.230Z,16.95
2022-10-18T16:09:01.850Z,16.82
2022-10-18T16:11:29.651Z,16.57
2022-10-18T16:13:58.029Z,16.42
2022-10-18T16:16:28.710Z,16.39
2022-10-18T16:18:55.698Z,16.36
2022-10-18T16:21:30.012Z,16.26
2022-10-18T16:23:56.848Z,16.09
2022-10-18T16:26:23.915Z,16.03
2022-10-18T16:28:51.374Z,15.97
2022-10-18T16:31:20.877Z,15.91
2022-10-18T16:33:50.245Z,15.73
2022-10-18T16:36:19.335Z,15.65
2022-10-18T16:38:46.819Z,15.63
2022-10-18T16:41:13.427Z,15.53
2022-10-18T16:43:40.005Z,15.35
2022-10-18T16:46:07.625Z,15.21
2022-10-18T16:48:34.105Z,15.15
2022-10-18T16:51:01.118Z,15.00
2022-10-18T16:53:28.086Z,14.95
2022-10-18T16:56:05.307Z,14.89
2022-10-18T16:58:32.874Z,14.80
2022-10-18T17:01:01.014Z,14.65
2022-10-18T17:03:29.563Z,14.59
2022-10-18T17:05:56.781Z,14.52
2022-10-18T17:08:25.745Z,14.40
2022-10-18T17:10:55.269Z,14.28
2022-10-18T17:13:22.300Z,14.23
2022-10-18T17:15:49.404Z,14.15
2022-10-18T17:18:21.932Z,14.07
2022-10-18T17:20:49.658Z,13.98
2022-10-18T17:23:16.348Z,13.87
2022-10-18T17:25:58.961Z,13.71
2022-10-18T17:28:33.742Z,13.62
2022-10-18T17:31:00.343Z,13.59
2022-10-18T17:33:26.876Z,13.48
2022-10-18T17:35:53.466Z,13.45
2022-10-18T17:38:19.918Z,13.44
2022-10-18T17:40:46.497Z,13.34
2022-10-18T17:43:13.959Z,13.27
2022-10-18T17:45:51.139Z,13.18
2022-10-18T17:48:17.681Z,13.06
2022-10-18T17:50:44.486Z,13.02
2022-10-18T17:53:12.912Z,12.95
2022-10-18T17:55:39.711Z,12.84
2022-10-18T17:58:06.383Z,12.79
2022-10-18T18:00:32.860Z,12.77
2022-10-18T18:03:00.231Z,12.73
2022-10-18T18:05:31.136Z,12.64
2022-10-18T18:08:02.762Z,12.52
2022-10-18T18:10:33.004Z,12.41
2022-10-18T18:12:59.594Z,12.31
2022-10-18T18:15:26.133Z,12.28
2022-10-18T18:17:57.187Z,12.22
2022-10-18T18:20:24.595Z,12.18
2022-10-18T18:22:51.810Z,12.13
2022-10-18T18:25:18.475Z,12.06
2022-10-18T18:27:45.092Z,11.96
2022-10-18T18:30:12.150Z,11.92
2022-10-18T18:32:38.721Z,11.91
2022-10-18T18:35:05.618Z,11.82
2022-10-18T18:37:32.143Z,11.74
2022-10-18T18:39:58.632Z,11.70
2022-10-18T18:42:25.279Z,11.69
2022-10-18T18:44:51.813Z,11.70
2022-10-18T18:47:21.555Z,11.63
2022-10-18T18:49:48.465Z,11.54
2022-10-18T18:52:14.945Z,11.50
2022-10-18T18:54:41.409Z,11.45
2022-10-18T18:57:07.930Z,11.42
2022-10-18T18:59:34.448Z,11.39
2022-10-18T19:02:01.182Z,11.39
2022-10-18T19:04:29.037Z,11.38
2022-10-18T19:06:55.554Z,11.39
2022-10-18T19:09:22.871Z,11.37
2022-10-18T19:11:52.463Z,11.38
2022-10-18T19:14:19.682Z,11.33
2022-10-18T19:16:51.013Z,11.29
2022-10-18T19:19:22.656Z,11.23
2022-10-18T19:21:54.022Z,11.22
2022-10-18T19:24:21.862Z,11.16
2022-10-18T19:26:54.101Z,11.11
2022-10-18T19:29:26.120Z,11.08
2022-10-18T19:31:54.388Z,11.05
2022-10-18T19:34:22.304Z,11.03
2022-10-18T19:36:49.747Z,10.98
2022-10-18T19:39:24.587Z,10.96
2022-10-18T19:41:55.141Z,10.90
2022-10-18T19:44:22.675Z,10.85
2022-10-18T19:46:49.508Z,10.80
2022-10-18T19:49:16.882Z,10.77
2022-10-18T19:51:44.074Z,10.75
2022-10-18T19:54:14.503Z,10.71
2022-10-18T19:56:41.750Z,10.71
2022-10-18T19:59:08.714Z,10.70
2022-10-18T20:01:35.343Z,10.65
2022-10-18T20:04:03.788Z,10.59
2022-10-18T20:06:31.712Z,10.52
2022-10-18T20:08:58.529Z,10.49
2022-10-18T20:11:27.607Z,10.48
2022-10-18T20:13:54.423Z,10.46
2022-10-18T20:16:28.594Z,10.47
2022-10-18T20:19:00.303Z,10.46
2022-10-18T20:21:28.540Z,10.46
2022-10-18T20:23:55.388Z,10.43
2022-10-18T20:26:21.893Z,10.44
2022-10-18T20:28:56.213Z,10.44
2022-10-18T20:31:30.826Z,10.41
2022-10-18T20:33:59.814Z,10.40
2022-10-18T20:36:27.621Z,10.40
2022-10-18T20:38:54.946Z,10.36
2022-10-18T20:41:36.540Z,10.33
2022-10-18T20:44:05.267Z,10.31
2022-10-18T20:46:33.601Z,10.31
2022-10-18T20:49:00.593Z,10.30
2022-10-18T20:51:27.087Z,10.27
2022-10-18T20:53:53.850Z,10.26
2022-10-18T20:56:22.238Z,10.27
2022-10-18T20:58:54.593Z,10.26
2022-10-18T21:01:27.284Z,10.22
2022-10-18T21:03:55.571Z,10.16
2022-10-18T21:06:32.195Z,10.10
2022-10-18T21:09:03.811Z,10.05
2022-10-18T21:11:31.716Z,10.02
2022-10-18T21:14:02.526Z,10.01
2022-10-18T21:16:33.708Z,9.97
2022-10-18T21:19:08.702Z,9.93
2022-10-18T21:21:35.588Z,9.88
2022-10-18T21:24:05.466Z,9.87
2022-10-18T21:26:34.642Z,9.84
2022-10-18T21:29:01.378Z,9.82
2022-10-18T21:31:30.392Z,9.78
2022-10-18T21:33:59.233Z,9.75
2022-10-18T21:36:27.433Z,9.73
2022-10-18T21:38:53.921Z,9.71
2022-10-18T21:41:21.397Z,9.69
2022-10-18T21:43:50.571Z,9.67
2022-10-18T21:46:18.626Z,9.64
2022-10-18T21:48:47.207Z,9.58
2022-10-18T21:51:15.662Z,9.53
2022-10-18T21:53:43.606Z,9.50
2022-10-18T21:56:15.313Z,9.49
2022-10-18T21:58:42.474Z,9.44
2022-10-18T22:01:14.548Z,9.42
2022-10-18T22:03:41.528Z,9.42
2022-10-18T22:06:14.212Z,9.42
2022-10-18T22:08:44.889Z,9.39
2022-10-18T22:11:12.633Z,9.38
2022-10-18T22:13:39.945Z,9.36
2022-10-18T22:16:07.345Z,9.34
2022-10-18T22:18:34.615Z,9.30
2022-10-18T22:21:03.913Z,9.29
2022-10-18T22:23:35.297Z,9.27
2022-10-18T22:26:07.844Z,9.27
2022-10-18T22:28:35.268Z,9.24
2022-10-18T22:31:02.102Z,9.23
2022-10-18T22:33:28.635Z,9.20
2022-10-18T22:35:55.429Z,9.18
2022-10-18T22:38:22.082Z,9.17
2022-10-18T22:40:48.615Z,9.13
2022-10-18T22:43:15.123Z,9.15
2022-10-18T22:45:41.867Z,9.12
2022-10-18T22:48:08.397Z,9.07
2022-10-18T22:50:34.963Z,9.06
2022-10-18T22:53:01.423Z,9.01
2022-10-18T22:55:27.892Z,8.99
2022-10-18T22:57:55.610Z,8.96
2022-10-18T23:00:22.149Z,8.96
2022-10-18T23:02:49.779Z,8.93
2022-10-18T23:05:16.492Z,8.92
2022-10-18T23:07:47.693Z,8.94
2022-10-18T23:10:14.267Z,8.91
2022-10-18T23:12:40.743Z,8.90
2022-10-18T23:15:07.814Z,8.88
2022-10-18T23:17:34.571Z,8.82
2022-10-18T23:20:01.254Z,8.78
2022-10-18T23:22:27.718Z,8.76
2022-10-18T23:24:54.241Z,8.72
2022-10-18T23:27:20.727Z,8.70
2022-10-18T23:29:47.241Z,8.68
2022-10-18T23:32:13.717Z,8.66
2022-10-18T23:34:40.222Z,8.64
2022-10-18T23:37:06.725Z,8.60
2022-10-18T23:39:33.188Z,8.58
2022-10-18T23:41:59.644Z,8.55
2022-10-18T23:44:26.138Z,8.52
2022-10-18T23:46:52.602Z,8.51
2022-10-18T23:49:19.097Z,8.48
2022-10-18T23:51:45.578Z,8.45
2022-10-18T23:54:12.041Z,8.42
2022-10-18T23:56:38.501Z,8.36
2022-10-18T23:59:05.006Z,8.31
